createdAt,value
2017-10-16T00:01:57.347Z,76.06
2017-10-16T00:04:23.768Z,75.97
2017-10-16T00:06:50.268Z,75.87
2017-10-16T00:09:16.646Z,76.32
2017-10-16T00:11:43.121Z,76.39
2017-10-16T00:14:10.170Z,77.34
2017-10-16T00:16:36.603Z,78.02
2017-10-16T00:19:03.039Z,78.31
2017-10-16T00:21:29.473Z,78.37
2017-10-16T00:23:55.908Z,78.03
2017-10-16T00:26:22.344Z,77.81
2017-10-16T00:28:48.778Z,78.05
2017-10-16T00:31:15.949Z,78.31
2017-10-16T00:33:42.316Z,77.98
2017-10-16T00:36:08.688Z,77.95
2017-10-16T00:38:35.085Z,78.07
2017-10-16T00:41:01.524Z,78.18
2017-10-16T00:43:27.984Z,78.03
2017-10-16T00:45:54.389Z,77.62
2017-10-16T00:48:21.587Z,77.97
2017-10-16T00:50:48.022Z,78.29
2017-10-16T00:53:14.458Z,78.37
2017-10-16T00:55:40.892Z,78.27
2017-10-16T00:58:07.326Z,77.38
2017-10-16T01:00:33.762Z,76.92
2017-10-16T01:03:00.196Z,76.86
2017-10-16T01:05:27.450Z,77.20
2017-10-16T01:07:53.884Z,78.03
2017-10-16T01:10:20.320Z,78.24
2017-10-16T01:12:46.753Z,78.33
2017-10-16T01:15:13.191Z,78.53
2017-10-16T01:17:39.625Z,78.31
2017-10-16T01:20:06.059Z,78.01
2017-10-16T01:22:33.316Z,77.89
2017-10-16T01:24:59.731Z,77.77
2017-10-16T01:27:26.184Z,77.46
2017-10-16T01:29:52.635Z,76.82
2017-10-16T01:32:19.015Z,76.98
2017-10-16T01:34:45.487Z,76.79
2017-10-16T01:37:11.841Z,76.76
2017-10-16T01:39:39.017Z,76.79
2017-10-16T01:42:05.409Z,77.11
2017-10-16T01:44:31.842Z,77.10
2017-10-16T01:46:58.287Z,77.33
2017-10-16T01:49:24.664Z,77.14
2017-10-16T01:51:51.100Z,76.29
2017-10-16T01:54:17.566Z,76.21
2017-10-16T01:56:44.690Z,76.48
2017-10-16T01:59:11.168Z,76.60
2017-10-16T02:01:37.602Z,76.48
2017-10-16T02:04:04.036Z,76.84
2017-10-16T02:06:30.471Z,77.76
2017-10-16T02:08:56.905Z,77.98
2017-10-16T02:11:23.340Z,77.26
2017-10-16T02:13:50.493Z,77.11
2017-10-16T02:16:16.926Z,77.19
2017-10-16T02:18:43.361Z,76.93
2017-10-16T02:21:09.899Z,76.70
2017-10-16T02:23:36.334Z,77.04
2017-10-16T02:26:02.768Z,77.83
2017-10-16T02:28:29.203Z,78.33
2017-10-16T02:30:56.419Z,78.53
2017-10-16T02:33:22.891Z,78.50
2017-10-16T02:35:49.282Z,78.62
2017-10-16T02:38:15.717Z,78.69
2017-10-16T02:40:42.197Z,78.75
2017-10-16T02:43:08.641Z,78.75
2017-10-16T02:45:35.066Z,78.77
2017-10-16T02:48:02.321Z,77.89
2017-10-16T02:50:28.680Z,77.43
2017-10-16T02:52:55.087Z,77.92
2017-10-16T02:55:21.522Z,78.55
2017-10-16T02:57:47.922Z,78.70
2017-10-16T03:00:14.391Z,78.53
2017-10-16T03:02:40.826Z,78.32
2017-10-16T03:05:07.978Z,78.17
2017-10-16T03:07:34.413Z,77.80
2017-10-16T03:10:00.852Z,77.12
2017-10-16T03:12:27.283Z,77.04
2017-10-16T03:14:53.717Z,77.16
2017-10-16T03:17:20.208Z,77.13
2017-10-16T03:19:46.690Z,77.03
2017-10-16T03:22:13.840Z,76.56
2017-10-16T03:24:40.276Z,76.71
2017-10-16T03:27:06.684Z,76.82
2017-10-16T03:29:33.144Z,76.97
2017-10-16T03:31:59.580Z,77.52
2017-10-16T03:34:26.117Z,78.12
2017-10-16T03:36:52.551Z,78.89
2017-10-16T03:39:19.703Z,77.81
2017-10-16T03:41:46.144Z,77.72
2017-10-16T03:44:12.582Z,78.47
2017-10-16T03:46:39.008Z,78.90
2017-10-16T03:49:05.443Z,79.22
2017-10-16T03:51:31.877Z,79.22
2017-10-16T03:53:58.312Z,78.97
2017-10-16T03:56:25.567Z,77.96
2017-10-16T03:58:51.952Z,77.72
2017-10-16T04:01:18.332Z,77.71
2017-10-16T04:03:44.773Z,77.94
2017-10-16T04:06:11.203Z,77.18
2017-10-16T04:08:37.637Z,77.34
2017-10-16T04:11:04.027Z,77.55
2017-10-16T04:13:31.327Z,78.03
2017-10-16T04:15:57.785Z,78.30
2017-10-16T04:18:24.196Z,78.38
2017-10-16T04:20:50.632Z,78.30
2017-10-16T04:23:17.066Z,78.23
2017-10-16T04:25:43.501Z,78.22
2017-10-16T04:28:09.937Z,78.10
2017-10-16T04:30:37.209Z,78.17
2017-10-16T04:33:03.624Z,78.05
2017-10-16T04:35:30.162Z,77.94
2017-10-16T04:37:56.596Z,77.82
2017-10-16T04:40:23.031Z,77.78
2017-10-16T04:42:49.466Z,77.83
2017-10-16T04:45:15.900Z,78.02
2017-10-16T04:47:43.169Z,77.74
2017-10-16T04:50:09.691Z,76.91
2017-10-16T04:52:36.146Z,76.86
2017-10-16T04:55:02.619Z,76.73
2017-10-16T04:57:29.098Z,76.43
2017-10-16T04:59:55.606Z,76.28
2017-10-16T05:02:22.047Z,76.29
2017-10-16T05:04:49.328Z,76.27
2017-10-16T05:07:15.760Z,76.36
2017-10-16T05:09:42.195Z,76.14
2017-10-16T05:12:09.861Z,76.48
2017-10-16T05:14:36.292Z,76.41
2017-10-16T05:17:02.680Z,76.90
2017-10-16T05:19:29.387Z,76.78
2017-10-16T05:21:55.905Z,76.93
2017-10-16T05:24:22.360Z,76.91
2017-10-16T05:26:48.774Z,76.86
2017-10-16T05:29:15.168Z,77.01
2017-10-16T05:31:41.954Z,76.67
2017-10-16T05:34:08.590Z,76.47
2017-10-16T05:36:35.024Z,76.36
2017-10-16T05:39:01.413Z,75.67
2017-10-16T05:41:27.896Z,75.21
2017-10-16T05:43:54.330Z,74.53
2017-10-16T05:46:20.718Z,73.78
2017-10-16T05:48:47.199Z,73.25
2017-10-16T05:51:13.634Z,73.04
2017-10-16T05:53:40.073Z,72.64
2017-10-16T05:56:07.030Z,72.90
2017-10-16T05:58:33.450Z,72.62
2017-10-16T06:00:59.894Z,72.62
2017-10-16T06:03:26.321Z,72.44
2017-10-16T06:05:53.063Z,72.55
2017-10-16T06:08:19.497Z,72.29
2017-10-16T06:10:46.138Z,71.78
2017-10-16T06:13:12.780Z,71.70
2017-10-16T06:15:39.214Z,71.56
2017-10-16T06:18:05.788Z,71.81
2017-10-16T06:20:32.388Z,71.78
2017-10-16T06:22:58.767Z,71.66
2017-10-16T06:25:25.155Z,71.51
2017-10-16T06:27:51.681Z,71.54
2017-10-16T06:30:18.128Z,71.05
2017-10-16T06:32:44.787Z,70.87
2017-10-16T06:35:11.167Z,70.47
2017-10-16T06:37:37.580Z,70.18
2017-10-16T06:40:04.065Z,69.87
2017-10-16T06:42:30.506Z,69.74
2017-10-16T06:44:57.000Z,69.80
2017-10-16T06:47:24.137Z,69.62
2017-10-16T06:49:50.630Z,69.19
2017-10-16T06:52:17.067Z,68.92
2017-10-16T06:54:43.499Z,68.46
2017-10-16T06:57:09.934Z,68.39
2017-10-16T06:59:36.573Z,67.71
2017-10-16T07:02:03.005Z,67.22
2017-10-16T07:04:29.395Z,66.95
2017-10-16T07:06:55.878Z,66.82
2017-10-16T07:09:22.312Z,66.53
2017-10-16T07:11:48.918Z,65.85
2017-10-16T07:14:15.346Z,65.45
2017-10-16T07:16:41.822Z,64.78
2017-10-16T07:19:08.257Z,64.52
2017-10-16T07:21:34.999Z,64.05
2017-10-16T07:24:01.557Z,63.69
2017-10-16T07:26:28.072Z,63.36
2017-10-16T07:28:54.508Z,62.85
2017-10-16T07:31:20.941Z,62.60
2017-10-16T07:33:47.377Z,62.63
2017-10-16T07:36:13.915Z,62.04
2017-10-16T07:38:40.557Z,61.74
2017-10-16T07:41:07.091Z,61.78
2017-10-16T07:43:33.796Z,61.65
2017-10-16T07:46:00.252Z,61.27
2017-10-16T07:48:26.671Z,60.95
2017-10-16T07:50:53.136Z,60.35
2017-10-16T07:53:19.579Z,59.82
2017-10-16T07:55:46.115Z,59.47
2017-10-16T07:58:12.629Z,59.23
2017-10-16T08:00:39.019Z,58.98
2017-10-16T08:03:05.414Z,58.88
2017-10-16T08:05:31.952Z,58.36
2017-10-16T08:07:58.386Z,58.30
2017-10-16T08:10:24.821Z,57.92
2017-10-16T08:12:51.257Z,57.36
2017-10-16T08:15:17.775Z,57.17
2017-10-16T08:17:44.227Z,57.65
2017-10-16T08:20:10.663Z,57.63
2017-10-16T08:22:37.113Z,56.40
2017-10-16T08:25:03.587Z,56.89
2017-10-16T08:27:30.069Z,58.08
2017-10-16T08:29:56.520Z,58.79
2017-10-16T08:32:23.024Z,56.93
2017-10-16T08:34:49.477Z,55.90
2017-10-16T08:37:16.068Z,55.25
2017-10-16T08:39:43.165Z,55.04
2017-10-16T08:42:09.600Z,54.12
2017-10-16T08:44:36.035Z,53.91
2017-10-16T08:47:02.674Z,54.05
2017-10-16T08:49:29.109Z,54.12
2017-10-16T08:51:55.543Z,53.54
2017-10-16T08:54:21.978Z,52.40
2017-10-16T08:56:48.414Z,51.73
2017-10-16T08:59:14.811Z,51.78
2017-10-16T09:01:41.180Z,51.59
2017-10-16T09:04:07.532Z,51.80
2017-10-16T09:06:33.948Z,51.97
2017-10-16T09:09:00.383Z,51.90
2017-10-16T09:11:26.817Z,51.23
2017-10-16T09:13:53.206Z,51.76
2017-10-16T09:16:19.687Z,51.26
2017-10-16T09:18:46.483Z,50.66
2017-10-16T09:21:12.966Z,50.03
2017-10-16T09:23:39.402Z,49.75
2017-10-16T09:26:05.836Z,48.92
2017-10-16T09:28:32.274Z,48.42
2017-10-16T09:30:58.656Z,48.37
2017-10-16T09:33:25.550Z,48.02
2017-10-16T09:35:52.086Z,47.27
2017-10-16T09:38:18.541Z,46.93
2017-10-16T09:40:45.898Z,46.82
2017-10-16T09:43:12.620Z,46.45
2017-10-16T09:45:39.567Z,46.48
2017-10-16T09:48:06.002Z,46.73
2017-10-16T09:50:32.528Z,45.92
2017-10-16T09:52:58.959Z,46.02
2017-10-16T09:55:25.409Z,45.75
2017-10-16T09:57:51.852Z,45.80
2017-10-16T10:00:18.380Z,45.59
2017-10-16T10:02:45.228Z,45.11
2017-10-16T10:05:11.674Z,45.26
2017-10-16T10:07:38.409Z,44.94
2017-10-16T10:10:05.349Z,45.06
2017-10-16T10:12:31.733Z,44.61
2017-10-16T10:14:58.238Z,44.25
2017-10-16T10:17:24.756Z,44.26
2017-10-16T10:19:51.210Z,44.50
2017-10-16T10:22:17.728Z,44.51
2017-10-16T10:24:44.440Z,44.39
2017-10-16T10:27:10.909Z,44.89
2017-10-16T10:29:37.391Z,44.21
2017-10-16T10:32:03.869Z,44.17
2017-10-16T10:34:30.311Z,44.59
2017-10-16T10:36:56.800Z,44.84
2017-10-16T10:39:23.233Z,44.16
2017-10-16T10:41:49.716Z,44.29
2017-10-16T10:44:16.153Z,44.43
2017-10-16T10:46:42.588Z,44.16
2017-10-16T10:49:08.971Z,43.31
2017-10-16T10:51:35.355Z,43.15
2017-10-16T10:54:01.813Z,42.69
2017-10-16T10:56:28.839Z,42.40
2017-10-16T10:58:55.303Z,42.53
2017-10-16T11:01:22.224Z,42.40
2017-10-16T11:03:48.656Z,41.74
2017-10-16T11:06:15.110Z,42.45
2017-10-16T11:08:42.404Z,42.12
2017-10-16T11:11:08.884Z,41.95
2017-10-16T11:13:35.424Z,41.82
2017-10-16T11:16:02.473Z,40.00
2017-10-16T11:18:28.902Z,39.64
2017-10-16T11:20:55.397Z,39.83
2017-10-16T11:23:22.491Z,38.77
2017-10-16T11:25:48.981Z,38.49
2017-10-16T11:28:15.336Z,37.84
2017-10-16T11:30:42.299Z,37.98
2017-10-16T11:33:08.684Z,36.93
2017-10-16T11:35:35.159Z,36.95
2017-10-16T11:38:01.612Z,36.75
2017-10-16T11:40:28.048Z,36.85
2017-10-16T11:42:54.432Z,36.33
2017-10-16T11:45:20.916Z,36.35
2017-10-16T11:47:47.349Z,36.09
2017-10-16T11:50:13.988Z,35.45
2017-10-16T11:52:40.547Z,35.52
2017-10-16T11:55:06.960Z,35.08
2017-10-16T11:57:33.356Z,34.11
2017-10-16T11:59:59.814Z,32.95
2017-10-16T12:02:26.212Z,31.70
2017-10-16T12:04:52.700Z,30.83
2017-10-16T12:07:19.337Z,30.07
2017-10-16T12:09:45.876Z,29.58
2017-10-16T12:12:12.332Z,29.15
2017-10-16T12:14:38.850Z,28.48
2017-10-16T12:17:05.285Z,28.30
2017-10-16T12:19:31.880Z,28.52
2017-10-16T12:21:58.804Z,28.06
2017-10-16T12:24:25.306Z,27.97
2017-10-16T12:26:51.741Z,27.73
2017-10-16T12:29:18.175Z,27.19
2017-10-16T12:31:44.903Z,26.95
2017-10-16T12:34:11.472Z,26.63
2017-10-16T12:36:42.654Z,26.68
2017-10-16T12:39:11.491Z,27.02
2017-10-16T12:41:37.927Z,27.08
2017-10-16T12:44:06.861Z,26.56
2017-10-16T12:46:35.403Z,26.93
2017-10-16T12:49:01.847Z,26.73
2017-10-16T12:51:28.251Z,26.23
2017-10-16T12:53:54.692Z,25.71
2017-10-16T12:56:21.556Z,25.05
2017-10-16T12:58:48.090Z,24.52
2017-10-16T13:01:14.572Z,24.35
2017-10-16T13:03:41.343Z,24.82
2017-10-16T13:06:07.782Z,25.69
2017-10-16T13:08:34.197Z,25.13
2017-10-16T13:11:01.122Z,25.18
2017-10-16T13:13:27.517Z,25.75
2017-10-16T13:15:54.056Z,25.29
2017-10-16T13:18:21.105Z,24.95
2017-10-16T13:20:47.539Z,24.83
2017-10-16T13:23:14.754Z,24.66
2017-10-16T13:25:41.638Z,24.12
2017-10-16T13:28:08.072Z,24.05
2017-10-16T13:30:34.513Z,24.23
2017-10-16T13:33:00.943Z,25.66
2017-10-16T13:35:27.377Z,25.53
2017-10-16T13:37:53.764Z,25.45
2017-10-16T13:40:20.246Z,25.35
2017-10-16T13:42:47.215Z,25.16
2017-10-16T13:45:13.730Z,25.56
2017-10-16T13:47:40.165Z,26.14
2017-10-16T13:50:06.716Z,26.22
2017-10-16T13:55:06.106Z,26.47
2017-10-16T13:57:32.834Z,26.54
2017-10-16T13:59:59.325Z,26.26
2017-10-16T14:02:25.916Z,26.59
2017-10-16T14:04:53.481Z,26.76
2017-10-16T14:07:19.997Z,26.93
2017-10-16T14:09:46.424Z,26.25
2017-10-16T14:12:12.983Z,26.05
2017-10-16T14:14:39.542Z,25.83
2017-10-16T14:17:06.053Z,25.63
2017-10-16T14:19:35.903Z,25.95
2017-10-16T14:22:02.388Z,26.69
2017-10-16T14:24:28.941Z,26.71
2017-10-16T14:26:55.804Z,27.29
2017-10-16T14:29:22.425Z,27.68
2017-10-16T14:31:49.603Z,27.89
2017-10-16T14:34:16.353Z,27.31
2017-10-16T14:36:42.862Z,27.09
2017-10-16T14:39:09.292Z,26.94
2017-10-16T14:41:35.726Z,27.69
2017-10-16T14:44:02.162Z,28.25
2017-10-16T14:46:28.698Z,28.08
2017-10-16T14:48:55.177Z,28.48
2017-10-16T14:51:21.568Z,28.95
2017-10-16T14:53:48.002Z,29.30
2017-10-16T14:56:14.438Z,30.22
2017-10-16T14:58:40.821Z,30.58
2017-10-16T15:01:07.308Z,31.11
2017-10-16T15:03:33.743Z,31.16
2017-10-16T15:06:00.179Z,31.90
2017-10-16T15:08:26.562Z,32.30
2017-10-16T15:10:53.045Z,33.41
2017-10-16T15:13:19.481Z,34.26
2017-10-16T15:15:46.571Z,35.18
2017-10-16T15:18:17.352Z,36.56
2017-10-16T15:20:43.810Z,37.72
2017-10-16T15:33:16.583Z,43.66
2017-10-16T15:35:43.731Z,44.33
2017-10-16T15:38:10.233Z,45.44
2017-10-16T15:40:36.668Z,46.53
2017-10-16T15:43:03.835Z,47.26
2017-10-16T15:45:30.405Z,48.13
2017-10-16T15:47:56.791Z,49.14
2017-10-16T15:50:24.816Z,50.56
2017-10-16T15:52:51.636Z,51.09
2017-10-16T15:57:50.327Z,51.88
2017-10-16T16:00:16.781Z,52.46
2017-10-16T16:02:43.269Z,52.76
2017-10-16T16:05:09.735Z,53.42
2017-10-16T16:07:36.168Z,54.12
2017-10-16T16:10:02.605Z,54.41
2017-10-16T16:12:29.038Z,54.89
2017-10-16T16:14:55.473Z,55.64
2017-10-16T16:17:21.911Z,55.85
2017-10-16T16:19:48.347Z,56.07
2017-10-16T16:22:14.777Z,55.77
2017-10-16T16:24:41.213Z,56.48
2017-10-16T16:27:07.752Z,57.11
2017-10-16T16:29:34.186Z,57.82
2017-10-16T16:32:00.620Z,57.81
2017-10-16T16:34:27.056Z,57.88
2017-10-16T16:36:53.489Z,58.14
2017-10-16T16:39:19.882Z,58.14
2017-10-16T16:41:46.306Z,58.25
2017-10-16T16:44:12.814Z,57.80
2017-10-16T16:46:39.228Z,57.86
2017-10-16T16:49:06.483Z,58.93
2017-10-16T16:51:32.932Z,59.40
2017-10-16T16:53:59.355Z,59.58
2017-10-16T16:56:25.774Z,59.48
2017-10-16T16:58:52.226Z,59.70
2017-10-16T17:01:18.642Z,60.07
2017-10-16T17:03:45.083Z,60.20
2017-10-16T17:06:12.196Z,60.27
2017-10-16T17:08:39.702Z,60.76
2017-10-16T17:11:06.075Z,60.91
2017-10-16T17:13:32.572Z,61.86
2017-10-16T17:15:59.013Z,62.27
2017-10-16T17:18:25.414Z,62.61
2017-10-16T17:20:51.832Z,62.83
2017-10-16T17:23:18.313Z,63.12
2017-10-16T17:25:44.746Z,63.05
2017-10-16T17:28:11.183Z,63.12
2017-10-16T17:30:37.718Z,63.43
2017-10-16T17:33:04.077Z,63.84
2017-10-16T17:35:30.588Z,63.99
2017-10-16T17:37:57.025Z,64.16
2017-10-16T17:40:24.174Z,64.13
2017-10-16T17:42:50.712Z,64.46
2017-10-16T17:45:17.146Z,64.69
2017-10-16T17:47:43.573Z,64.93
2017-10-16T17:50:09.969Z,65.03
2017-10-16T17:52:36.439Z,65.23
2017-10-16T17:55:02.885Z,65.55
2017-10-16T17:57:30.038Z,66.10
2017-10-16T17:59:56.472Z,66.86
2017-10-16T18:02:22.958Z,67.59
2017-10-16T18:04:49.445Z,67.94
2017-10-16T18:07:15.827Z,68.16
2017-10-16T18:09:42.315Z,68.21
2017-10-16T18:12:08.773Z,68.27
2017-10-16T18:14:35.901Z,68.34
2017-10-16T18:17:02.355Z,68.55
2017-10-16T18:19:28.756Z,68.56
2017-10-16T18:21:55.167Z,68.94
2017-10-16T18:24:21.649Z,68.77
2017-10-16T18:26:48.082Z,68.48
2017-10-16T18:29:14.512Z,68.54
2017-10-16T18:31:41.663Z,68.75
2017-10-16T18:34:08.051Z,69.21
2017-10-16T18:36:34.483Z,69.36
2017-10-16T18:39:00.914Z,69.82
2017-10-16T18:41:27.392Z,70.18
2017-10-16T18:43:53.832Z,70.39
2017-10-16T18:46:20.254Z,70.07
2017-10-16T18:48:47.416Z,69.85
2017-10-16T18:51:13.858Z,69.65
2017-10-16T18:53:40.294Z,69.63
2017-10-16T18:56:06.727Z,69.79
2017-10-16T18:58:33.161Z,70.39
2017-10-16T19:00:59.579Z,70.95
2017-10-16T19:03:26.023Z,71.29
2017-10-16T19:05:53.166Z,71.39
2017-10-16T19:08:19.616Z,71.36
2017-10-16T19:10:46.007Z,71.12
2017-10-16T19:13:12.487Z,70.64
2017-10-16T19:15:38.923Z,70.58
2017-10-16T19:18:05.326Z,70.82
2017-10-16T19:20:31.895Z,71.54
2017-10-16T19:22:58.943Z,72.21
2017-10-16T19:25:25.378Z,72.69
2017-10-16T19:27:51.813Z,72.66
2017-10-16T19:30:18.248Z,72.38
2017-10-16T19:32:44.682Z,72.20
2017-10-16T19:35:11.175Z,72.27
2017-10-16T19:37:37.654Z,72.54
2017-10-16T19:40:04.806Z,73.16
2017-10-16T19:42:31.241Z,73.40
2017-10-16T19:44:57.631Z,73.69
2017-10-16T19:47:24.066Z,73.89
2017-10-16T19:49:50.546Z,73.56
2017-10-16T19:52:16.980Z,73.23
2017-10-16T19:54:43.517Z,73.09
2017-10-16T19:57:10.669Z,73.31
2017-10-16T19:59:37.104Z,73.73
2017-10-16T20:02:03.539Z,73.90
2017-10-16T20:04:29.924Z,74.00
2017-10-16T20:06:56.411Z,74.01
2017-10-16T20:09:22.846Z,73.68
2017-10-16T20:11:49.227Z,73.72
2017-10-16T20:14:16.552Z,73.43
2017-10-16T20:16:42.970Z,73.01
2017-10-16T20:19:09.422Z,73.14
2017-10-16T20:21:35.807Z,73.01
2017-10-16T20:24:02.272Z,73.34
2017-10-16T20:26:28.707Z,73.95
2017-10-16T20:28:55.147Z,74.08
2017-10-16T20:31:22.327Z,73.91
2017-10-16T20:33:48.820Z,73.62
2017-10-16T20:36:15.216Z,73.97
2017-10-16T20:38:41.681Z,75.20
2017-10-16T20:41:08.091Z,75.59
2017-10-16T20:43:34.568Z,75.28
2017-10-16T20:46:01.005Z,75.33
2017-10-16T20:48:28.249Z,75.80
2017-10-16T20:50:54.693Z,75.02
2017-10-16T20:53:21.127Z,74.81
2017-10-16T20:55:47.502Z,74.76
2017-10-16T20:58:13.997Z,75.18
2017-10-16T21:00:40.431Z,75.33
2017-10-16T21:03:06.867Z,75.50
2017-10-16T21:05:34.034Z,76.06
2017-10-16T21:08:00.469Z,76.42
2017-10-16T21:10:26.893Z,76.22
2017-10-16T21:12:53.322Z,76.00
2017-10-16T21:15:19.758Z,75.87
2017-10-16T21:17:46.211Z,76.13
2017-10-16T21:20:12.627Z,76.04
2017-10-16T21:22:39.881Z,75.25
2017-10-16T21:25:06.316Z,75.04
2017-10-16T21:27:32.702Z,75.16
2017-10-16T21:29:59.185Z,75.35
2017-10-16T21:32:25.538Z,75.28
2017-10-16T21:34:51.954Z,75.08
2017-10-16T21:37:18.489Z,74.62
2017-10-16T21:39:45.539Z,74.61
2017-10-16T21:42:11.973Z,74.67
2017-10-16T21:44:38.426Z,75.26
2017-10-16T21:47:04.842Z,75.45
2017-10-16T21:49:31.282Z,75.96
2017-10-16T21:51:57.663Z,76.56
2017-10-16T21:54:24.100Z,76.67
2017-10-16T21:56:51.243Z,76.37
2017-10-16T21:59:17.683Z,76.22
2017-10-16T22:01:44.170Z,76.55
2017-10-16T22:04:10.549Z,76.69
2017-10-16T22:06:37.032Z,76.69
2017-10-16T22:09:03.465Z,76.48
2017-10-16T22:11:29.908Z,76.53
2017-10-16T22:13:56.343Z,77.32
2017-10-16T22:16:22.778Z,77.49
2017-10-16T22:18:49.212Z,77.06
2017-10-16T22:21:16.672Z,77.23
2017-10-16T22:23:43.106Z,77.47
2017-10-16T22:26:09.522Z,77.15
2017-10-16T22:28:35.963Z,77.23
2017-10-16T22:31:02.411Z,76.88
2017-10-16T22:33:28.850Z,76.55
2017-10-16T22:35:55.282Z,76.83
2017-10-16T22:38:22.536Z,77.81
2017-10-16T22:40:48.969Z,78.06
2017-10-16T22:43:15.423Z,77.94
2017-10-16T22:45:41.839Z,77.64
2017-10-16T22:48:08.274Z,77.30
2017-10-16T22:50:34.708Z,76.69
2017-10-16T22:53:01.143Z,76.69
2017-10-16T22:55:28.397Z,76.44
2017-10-16T22:57:54.834Z,76.54
2017-10-16T23:00:21.289Z,76.78
2017-10-16T23:02:47.702Z,77.24
2017-10-16T23:05:14.138Z,77.11
2017-10-16T23:07:40.515Z,76.79
2017-10-16T23:10:07.009Z,76.53
2017-10-16T23:12:34.159Z,76.68
2017-10-16T23:15:00.594Z,76.65
2017-10-16T23:17:27.028Z,76.56
2017-10-16T23:19:53.463Z,76.14
2017-10-16T23:22:19.863Z,75.75
2017-10-16T23:24:46.283Z,75.72
2017-10-16T23:27:12.660Z,75.16
2017-10-16T23:29:39.836Z,75.11
2017-10-16T23:32:06.216Z,74.56
2017-10-16T23:34:32.684Z,74.44
2017-10-16T23:36:59.126Z,74.79
2017-10-16T23:39:25.559Z,75.18
2017-10-16T23:41:52.009Z,75.25
2017-10-16T23:44:18.425Z,76.34
2017-10-16T23:46:45.634Z,77.23
2017-10-16T23:49:12.063Z,77.84
2017-10-16T23:51:38.446Z,78.05
2017-10-16T23:54:04.888Z,78.47
2017-10-16T23:56:31.315Z,78.53
2017-10-16T23:58:57.751Z,78.35
